sensor_id;sensor_type;location;lat;lon;timestamp;temperature;humidity
7240;DHT22;3661;53.288;10.458;2023-03-01T00:01:44;-2.10;99.90
7240;DHT22;3661;53.288;10.458;2023-03-01T00:04:17;-2.10;99.90
7240;DHT22;3661;53.288;10.458;2023-03-01T00:06:49;-2.10;99.90
7240;DHT22;3661;53.288;10.458;2023-03-01T00:09:22;-2.20;99.90
7240;DHT22;3661;53.288;10.458;2023-03-01T00:11:54;-2.20;99.90
7240;DHT22;3661;53.288;10.458;2023-03-01T00:14:26;-2.20;99.90
7240;DHT22;3661;53.288;10.458;2023-03-01T00:17:00;-2.20;99.90
7240;DHT22;3661;53.288;10.458;2023-03-01T00:19:32;-2.20;99.90
7240;DHT22;3661;53.288;10.458;2023-03-01T00:22:04;-2.30;99.90
7240;DHT22;3661;53.288;10.458;2023-03-01T00:24:36;-2.30;99.90
7240;DHT22;3661;53.288;10.458;2023-03-01T00:27:08;-2.30;99.90
7240;DHT22;3661;53.288;10.458;2023-03-01T00:29:40;-2.30;99.90
7240;DHT22;3661;53.288;10.458;2023-03-01T00:32:14;-2.30;99.90
7240;DHT22;3661;53.288;10.458;2023-03-01T00:34:46;-2.40;99.90
7240;DHT22;3661;53.288;10.458;2023-03-01T00:37:24;-2.40;99.90
7240;DHT22;3661;53.288;10.458;2023-03-01T00:39:57;-2.40;99.90
7240;DHT22;3661;53.288;10.458;2023-03-01T00:42:29;-2.40;99.90
7240;DHT22;3661;53.288;10.458;2023-03-01T00:45:01;-2.50;99.90
7240;DHT22;3661;53.288;10.458;2023-03-01T00:47:34;-2.50;99.90
7240;DHT22;3661;53.288;10.458;2023-03-01T00:50:07;-2.50;99.90
7240;DHT22;3661;53.288;10.458;2023-03-01T00:52:40;-2.50;99.90
7240;DHT22;3661;53.288;10.458;2023-03-01T00:55:12;-2.50;99.90
7240;DHT22;3661;53.288;10.458;2023-03-01T00:57:44;-2.60;99.90
7240;DHT22;3661;53.288;10.458;2023-03-01T01:00:18;-2.60;99.90
7240;DHT22;3661;53.288;10.458;2023-03-01T01:02:52;-2.60;99.90
7240;DHT22;3661;53.288;10.458;2023-03-01T01:05:24;-2.60;99.90
7240;DHT22;3661;53.288;10.458;2023-03-01T01:07:57;-2.70;99.90
7240;DHT22;3661;53.288;10.458;2023-03-01T01:10:30;-2.70;99.90
7240;DHT22;3661;53.288;10.458;2023-03-01T01:13:03;-2.70;99.90
7240;DHT22;3661;53.288;10.458;2023-03-01T01:15:35;-2.70;99.90
7240;DHT22;3661;53.288;10.458;2023-03-01T01:18:09;-2.70;99.90
7240;DHT22;3661;53.288;10.458;2023-03-01T01:20:41;-2.80;99.90
7240;DHT22;3661;53.288;10.458;2023-03-01T01:23:16;-2.80;99.90
7240;DHT22;3661;53.288;10.458;2023-03-01T01:25:49;-2.80;99.90
7240;DHT22;3661;53.288;10.458;2023-03-01T01:28:22;-2.80;99.90
7240;DHT22;3661;53.288;10.458;2023-03-01T01:30:54;-2.80;99.90
7240;DHT22;3661;53.288;10.458;2023-03-01T01:33:27;-2.80;99.90
7240;DHT22;3661;53.288;10.458;2023-03-01T01:35:59;-2.80;99.90
7240;DHT22;3661;53.288;10.458;2023-03-01T01:38:32;-2.90;99.90
7240;DHT22;3661;53.288;10.458;2023-03-01T01:41:05;-2.90;99.90
7240;DHT22;3661;53.288;10.458;2023-03-01T01:43:39;-2.90;99.90
7240;DHT22;3661;53.288;10.458;2023-03-01T01:46:19;-2.90;99.90
7240;DHT22;3661;53.288;10.458;2023-03-01T01:48:58;-2.90;99.90
7240;DHT22;3661;53.288;10.458;2023-03-01T01:51:35;-3.00;99.90
7240;DHT22;3661;53.288;10.458;2023-03-01T01:54:12;-3.00;99.90
7240;DHT22;3661;53.288;10.458;2023-03-01T01:56:50;-3.00;99.90
7240;DHT22;3661;53.288;10.458;2023-03-01T01:59:24;-3.00;99.90
7240;DHT22;3661;53.288;10.458;2023-03-01T02:01:58;-3.00;99.90
7240;DHT22;3661;53.288;10.458;2023-03-01T02:04:33;-3.10;99.90
7240;DHT22;3661;53.288;10.458;2023-03-01T02:07:11;-3.10;99.90
7240;DHT22;3661;53.288;10.458;2023-03-01T02:09:47;-3.10;99.90
7240;DHT22;3661;53.288;10.458;2023-03-01T02:12:22;-3.10;99.90
7240;DHT22;3661;53.288;10.458;2023-03-01T02:14:56;-3.10;99.90
7240;DHT22;3661;53.288;10.458;2023-03-01T02:17:28;-3.10;99.90
7240;DHT22;3661;53.288;10.458;2023-03-01T02:20:10;-3.20;99.90
7240;DHT22;3661;53.288;10.458;2023-03-01T02:22:45;-3.20;99.90
7240;DHT22;3661;53.288;10.458;2023-03-01T02:25:34;-3.20;99.90
7240;DHT22;3661;53.288;10.458;2023-03-01T02:28:19;-3.20;99.90
7240;DHT22;3661;53.288;10.458;2023-03-01T02:30:53;-3.20;99.90
7240;DHT22;3661;53.288;10.458;2023-03-01T02:33:43;-3.20;99.90
7240;DHT22;3661;53.288;10.458;2023-03-01T02:36:19;-3.20;99.90
7240;DHT22;3661;53.288;10.458;2023-03-01T02:38:54;-3.20;99.90
7240;DHT22;3661;53.288;10.458;2023-03-01T02:41:30;-3.30;99.90
7240;DHT22;3661;53.288;10.458;2023-03-01T02:44:05;-3.30;99.90
7240;DHT22;3661;53.288;10.458;2023-03-01T02:46:42;-3.30;99.90
7240;DHT22;3661;53.288;10.458;2023-03-01T02:49:26;-3.30;99.90
7240;DHT22;3661;53.288;10.458;2023-03-01T02:52:23;-3.30;99.90
7240;DHT22;3661;53.288;10.458;2023-03-01T02:55:01;-3.30;99.90
7240;DHT22;3661;53.288;10.458;2023-03-01T02:57:36;-3.30;99.90
7240;DHT22;3661;53.288;10.458;2023-03-01T03:00:14;-3.30;99.90
7240;DHT22;3661;53.288;10.458;2023-03-01T03:02:51;-3.30;99.90
7240;DHT22;3661;53.288;10.458;2023-03-01T03:05:28;-3.30;99.90
7240;DHT22;3661;53.288;10.458;2023-03-01T03:08:02;-3.30;99.90
7240;DHT22;3661;53.288;10.458;2023-03-01T03:10:37;-3.30;99.90
7240;DHT22;3661;53.288;10.458;2023-03-01T03:13:13;-3.30;99.90
7240;DHT22;3661;53.288;10.458;2023-03-01T03:15:46;-3.30;99.90
7240;DHT22;3661;53.288;10.458;2023-03-01T03:18:18;-3.40;99.90
7240;DHT22;3661;53.288;10.458;2023-03-01T03:20:51;-3.40;99.90
7240;DHT22;3661;53.288;10.458;2023-03-01T03:23:23;-3.40;99.90
7240;DHT22;3661;53.288;10.458;2023-03-01T03:25:56;-3.40;99.90
7240;DHT22;3661;53.288;10.458;2023-03-01T03:28:28;-3.40;99.90
7240;DHT22;3661;53.288;10.458;2023-03-01T03:31:05;-3.40;99.90
7240;DHT22;3661;53.288;10.458;2023-03-01T03:33:38;-3.50;99.90
7240;DHT22;3661;53.288;10.458;2023-03-01T03:36:15;-3.50;99.90
7240;DHT22;3661;53.288;10.458;2023-03-01T03:38:48;-3.50;99.90
7240;DHT22;3661;53.288;10.458;2023-03-01T03:41:20;-3.50;99.90
7240;DHT22;3661;53.288;10.458;2023-03-01T03:43:52;-3.50;99.90
7240;DHT22;3661;53.288;10.458;2023-03-01T03:46:26;-3.50;99.90
7240;DHT22;3661;53.288;10.458;2023-03-01T03:48:58;-3.50;99.90
7240;DHT22;3661;53.288;10.458;2023-03-01T03:51:30;-3.60;99.90
7240;DHT22;3661;53.288;10.458;2023-03-01T03:54:02;-3.60;99.90
7240;DHT22;3661;53.288;10.458;2023-03-01T03:56:34;-3.60;99.90
7240;DHT22;3661;53.288;10.458;2023-03-01T03:59:07;-3.60;99.90
7240;DHT22;3661;53.288;10.458;2023-03-01T04:01:43;-3.60;99.90
7240;DHT22;3661;53.288;10.458;2023-03-01T04:04:15;-3.60;99.90
7240;DHT22;3661;53.288;10.458;2023-03-01T04:06:49;-3.60;99.90
7240;DHT22;3661;53.288;10.458;2023-03-01T04:09:23;-3.60;99.90
7240;DHT22;3661;53.288;10.458;2023-03-01T04:11:56;-3.70;99.90
7240;DHT22;3661;53.288;10.458;2023-03-01T04:14:28;-3.70;99.90
7240;DHT22;3661;53.288;10.458;2023-03-01T04:17:09;-3.70;99.90
7240;DHT22;3661;53.288;10.458;2023-03-01T04:19:41;-3.70;99.90
7240;DHT22;3661;53.288;10.458;2023-03-01T04:22:14;-3.70;99.90
7240;DHT22;3661;53.288;10.458;2023-03-01T04:24:48;-3.70;99.90
7240;DHT22;3661;53.288;10.458;2023-03-01T04:27:20;-3.80;99.90
7240;DHT22;3661;53.288;10.458;2023-03-01T04:29:52;-3.80;99.90
7240;DHT22;3661;53.288;10.458;2023-03-01T04:32:25;-3.80;99.90
7240;DHT22;3661;53.288;10.458;2023-03-01T04:35:00;-3.80;99.90
7240;DHT22;3661;53.288;10.458;2023-03-01T04:37:33;-3.80;99.90
7240;DHT22;3661;53.288;10.458;2023-03-01T04:40:07;-3.80;99.90
7240;DHT22;3661;53.288;10.458;2023-03-01T04:42:46;-3.90;99.90
7240;DHT22;3661;53.288;10.458;2023-03-01T04:45:19;-3.90;99.90
7240;DHT22;3661;53.288;10.458;2023-03-01T04:47:52;-3.90;99.90
7240;DHT22;3661;53.288;10.458;2023-03-01T04:50:25;-3.90;99.90
7240;DHT22;3661;53.288;10.458;2023-03-01T04:52:57;-3.90;99.90
7240;DHT22;3661;53.288;10.458;2023-03-01T04:55:30;-3.90;99.90
7240;DHT22;3661;53.288;10.458;2023-03-01T04:58:03;-3.90;99.90
7240;DHT22;3661;53.288;10.458;2023-03-01T05:00:38;-3.90;99.90
7240;DHT22;3661;53.288;10.458;2023-03-01T05:03:11;-4.00;99.90
7240;DHT22;3661;53.288;10.458;2023-03-01T05:05:52;-4.00;99.90
7240;DHT22;3661;53.288;10.458;2023-03-01T05:08:24;-4.00;99.90
7240;DHT22;3661;53.288;10.458;2023-03-01T05:10:57;-4.00;99.90
7240;DHT22;3661;53.288;10.458;2023-03-01T05:13:29;-4.00;99.90
7240;DHT22;3661;53.288;10.458;2023-03-01T05:16:02;-4.00;99.90
7240;DHT22;3661;53.288;10.458;2023-03-01T05:18:37;-4.00;99.90
7240;DHT22;3661;53.288;10.458;2023-03-01T05:21:12;-4.00;99.90
7240;DHT22;3661;53.288;10.458;2023-03-01T05:23:46;-4.00;99.90
7240;DHT22;3661;53.288;10.458;2023-03-01T05:26:19;-4.00;99.90
7240;DHT22;3661;53.288;10.458;2023-03-01T05:28:52;-3.90;99.90
7240;DHT22;3661;53.288;10.458;2023-03-01T05:31:27;-3.90;99.90
7240;DHT22;3661;53.288;10.458;2023-03-01T05:34:02;-3.90;99.90
7240;DHT22;3661;53.288;10.458;2023-03-01T05:36:35;-3.80;99.90
7240;DHT22;3661;53.288;10.458;2023-03-01T05:39:08;-3.80;99.90
7240;DHT22;3661;53.288;10.458;2023-03-01T05:41:40;-3.80;99.90
7240;DHT22;3661;53.288;10.458;2023-03-01T05:44:13;-3.80;99.90
7240;DHT22;3661;53.288;10.458;2023-03-01T05:46:47;-3.80;99.90
7240;DHT22;3661;53.288;10.458;2023-03-01T05:49:21;-3.70;99.90
7240;DHT22;3661;53.288;10.458;2023-03-01T05:51:54;-3.70;99.90
7240;DHT22;3661;53.288;10.458;2023-03-01T05:54:26;-3.70;99.90
7240;DHT22;3661;53.288;10.458;2023-03-01T05:56:58;-3.60;99.90
7240;DHT22;3661;53.288;10.458;2023-03-01T05:59:31;-3.60;99.90
7240;DHT22;3661;53.288;10.458;2023-03-01T06:02:03;-3.60;99.90
7240;DHT22;3661;53.288;10.458;2023-03-01T06:04:36;-3.60;99.90
7240;DHT22;3661;53.288;10.458;2023-03-01T06:07:08;-3.50;99.90
7240;DHT22;3661;53.288;10.458;2023-03-01T06:09:40;-3.50;99.90
7240;DHT22;3661;53.288;10.458;2023-03-01T06:12:12;-3.50;99.90
7240;DHT22;3661;53.288;10.458;2023-03-01T06:14:45;-3.40;99.90
7240;DHT22;3661;53.288;10.458;2023-03-01T06:17:18;-3.40;99.90
7240;DHT22;3661;53.288;10.458;2023-03-01T06:19:51;-3.40;99.90
7240;DHT22;3661;53.288;10.458;2023-03-01T06:22:23;-3.40;99.90
7240;DHT22;3661;53.288;10.458;2023-03-01T06:24:57;-3.30;99.90
7240;DHT22;3661;53.288;10.458;2023-03-01T06:27:29;-3.30;99.90
7240;DHT22;3661;53.288;10.458;2023-03-01T06:30:01;-3.30;99.90
7240;DHT22;3661;53.288;10.458;2023-03-01T06:32:34;-3.30;99.90
7240;DHT22;3661;53.288;10.458;2023-03-01T06:35:08;-3.20;99.90
7240;DHT22;3661;53.288;10.458;2023-03-01T06:37:40;-3.20;99.90
7240;DHT22;3661;53.288;10.458;2023-03-01T06:40:14;-3.20;99.90
7240;DHT22;3661;53.288;10.458;2023-03-01T06:42:49;-3.20;99.90
7240;DHT22;3661;53.288;10.458;2023-03-01T06:45:21;-3.10;99.90
7240;DHT22;3661;53.288;10.458;2023-03-01T06:48:01;-3.10;99.90
7240;DHT22;3661;53.288;10.458;2023-03-01T06:50:35;-3.00;99.90
7240;DHT22;3661;53.288;10.458;2023-03-01T06:53:07;-3.00;99.90
7240;DHT22;3661;53.288;10.458;2023-03-01T06:55:39;-3.00;99.90
7240;DHT22;3661;53.288;10.458;2023-03-01T06:58:11;-3.00;99.90
7240;DHT22;3661;53.288;10.458;2023-03-01T07:00:44;-2.90;99.90
7240;DHT22;3661;53.288;10.458;2023-03-01T07:06:44;-2.90;99.90
7240;DHT22;3661;53.288;10.458;2023-03-01T07:16:19;-2.80;99.90
7240;DHT22;3661;53.288;10.458;2023-03-01T07:26:00;-2.60;99.90
7240;DHT22;3661;53.288;10.458;2023-03-01T07:28:32;-2.60;99.90
7240;DHT22;3661;53.288;10.458;2023-03-01T07:31:06;-2.50;99.90
7240;DHT22;3661;53.288;10.458;2023-03-01T07:33:38;-2.40;99.90
7240;DHT22;3661;53.288;10.458;2023-03-01T07:36:10;-2.40;99.90
7240;DHT22;3661;53.288;10.458;2023-03-01T07:38:43;-2.30;99.90
7240;DHT22;3661;53.288;10.458;2023-03-01T07:41:17;-2.30;99.90
7240;DHT22;3661;53.288;10.458;2023-03-01T07:43:49;-2.20;99.90
7240;DHT22;3661;53.288;10.458;2023-03-01T07:46:22;-2.20;99.90
7240;DHT22;3661;53.288;10.458;2023-03-01T07:48:54;-2.10;99.90
7240;DHT22;3661;53.288;10.458;2023-03-01T07:51:27;-2.10;99.90
7240;DHT22;3661;53.288;10.458;2023-03-01T07:53:59;-2.00;99.90
7240;DHT22;3661;53.288;10.458;2023-03-01T07:56:32;-2.00;99.90
7240;DHT22;3661;53.288;10.458;2023-03-01T07:59:05;-1.90;99.90
7240;DHT22;3661;53.288;10.458;2023-03-01T08:01:37;-1.90;99.90
7240;DHT22;3661;53.288;10.458;2023-03-01T08:04:09;-1.80;99.90
7240;DHT22;3661;53.288;10.458;2023-03-01T08:06:41;-1.80;99.90
7240;DHT22;3661;53.288;10.458;2023-03-01T08:09:13;-1.70;99.90
7240;DHT22;3661;53.288;10.458;2023-03-01T08:11:47;-1.60;99.90
7240;DHT22;3661;53.288;10.458;2023-03-01T08:14:19;-1.60;99.90
7240;DHT22;3661;53.288;10.458;2023-03-01T08:16:51;-1.50;99.90
7240;DHT22;3661;53.288;10.458;2023-03-01T08:19:23;-1.40;99.90
7240;DHT22;3661;53.288;10.458;2023-03-01T08:21:55;-1.30;99.90
7240;DHT22;3661;53.288;10.458;2023-03-01T08:24:28;-1.20;99.90
7240;DHT22;3661;53.288;10.458;2023-03-01T08:27:04;-1.10;99.90
7240;DHT22;3661;53.288;10.458;2023-03-01T08:29:36;-1.00;99.90
7240;DHT22;3661;53.288;10.458;2023-03-01T08:32:08;-0.90;99.90
7240;DHT22;3661;53.288;10.458;2023-03-01T08:34:40;-0.80;99.90
7240;DHT22;3661;53.288;10.458;2023-03-01T08:37:12;-0.70;99.90
7240;DHT22;3661;53.288;10.458;2023-03-01T08:39:44;-0.60;99.90
7240;DHT22;3661;53.288;10.458;2023-03-01T08:42:18;-0.50;99.90
7240;DHT22;3661;53.288;10.458;2023-03-01T08:44:50;-0.30;99.90
7240;DHT22;3661;53.288;10.458;2023-03-01T08:47:23;-0.20;99.90
7240;DHT22;3661;53.288;10.458;2023-03-01T08:49:56;-0.10;99.90
7240;DHT22;3661;53.288;10.458;2023-03-01T08:52:28;0.00;99.90
7240;DHT22;3661;53.288;10.458;2023-03-01T08:55:01;0.20;99.90
7240;DHT22;3661;53.288;10.458;2023-03-01T08:57:34;0.20;99.90
7240;DHT22;3661;53.288;10.458;2023-03-01T09:00:08;0.40;99.90
7240;DHT22;3661;53.288;10.458;2023-03-01T09:02:40;0.50;99.90
7240;DHT22;3661;53.288;10.458;2023-03-01T09:05:12;0.60;99.90
7240;DHT22;3661;53.288;10.458;2023-03-01T09:07:44;0.70;99.90
7240;DHT22;3661;53.288;10.458;2023-03-01T09:10:16;0.80;99.90
7240;DHT22;3661;53.288;10.458;2023-03-01T09:12:51;0.90;99.90
7240;DHT22;3661;53.288;10.458;2023-03-01T09:15:23;1.00;99.90
7240;DHT22;3661;53.288;10.458;2023-03-01T09:17:55;1.10;99.90
7240;DHT22;3661;53.288;10.458;2023-03-01T09:20:27;1.20;99.90
7240;DHT22;3661;53.288;10.458;2023-03-01T09:22:59;1.40;99.90
7240;DHT22;3661;53.288;10.458;2023-03-01T09:25:31;1.50;99.90
7240;DHT22;3661;53.288;10.458;2023-03-01T09:31:33;1.80;99.90
7240;DHT22;3661;53.288;10.458;2023-03-01T09:37:33;2.20;99.90
7240;DHT22;3661;53.288;10.458;2023-03-01T09:43:40;2.60;99.90
7240;DHT22;3661;53.288;10.458;2023-03-01T09:49:43;3.00;99.90
7240;DHT22;3661;53.288;10.458;2023-03-01T09:56:10;3.40;99.90
7240;DHT22;3661;53.288;10.458;2023-03-01T10:02:24;3.90;99.90
7240;DHT22;3661;53.288;10.458;2023-03-01T10:19:24;5.50;99.90
7240;DHT22;3661;53.288;10.458;2023-03-01T10:22:03;5.80;99.90
7240;DHT22;3661;53.288;10.458;2023-03-01T10:24:37;6.10;99.90
7240;DHT22;3661;53.288;10.458;2023-03-01T10:27:13;6.40;99.90
7240;DHT22;3661;53.288;10.458;2023-03-01T10:29:57;6.60;99.90
7240;DHT22;3661;53.288;10.458;2023-03-01T10:32:33;6.90;99.90
7240;DHT22;3661;53.288;10.458;2023-03-01T10:35:18;7.20;99.90
7240;DHT22;3661;53.288;10.458;2023-03-01T10:37:58;7.50;99.90
7240;DHT22;3661;53.288;10.458;2023-03-01T10:40:30;7.80;99.90
7240;DHT22;3661;53.288;10.458;2023-03-01T10:43:04;8.10;99.90
7240;DHT22;3661;53.288;10.458;2023-03-01T10:45:38;8.30;99.90
7240;DHT22;3661;53.288;10.458;2023-03-01T10:48:15;8.60;99.90
7240;DHT22;3661;53.288;10.458;2023-03-01T10:50:50;8.80;99.90
7240;DHT22;3661;53.288;10.458;2023-03-01T10:53:26;9.00;99.90
7240;DHT22;3661;53.288;10.458;2023-03-01T10:56:01;9.20;99.90
7240;DHT22;3661;53.288;10.458;2023-03-01T10:58:35;9.40;99.90
7240;DHT22;3661;53.288;10.458;2023-03-01T11:01:26;9.60;99.90
7240;DHT22;3661;53.288;10.458;2023-03-01T11:04:11;9.80;99.90
7240;DHT22;3661;53.288;10.458;2023-03-01T11:06:58;10.00;99.90
7240;DHT22;3661;53.288;10.458;2023-03-01T11:09:32;10.20;99.90
7240;DHT22;3661;53.288;10.458;2023-03-01T11:12:14;10.30;99.90
7240;DHT22;3661;53.288;10.458;2023-03-01T11:14:51;10.40;99.90
7240;DHT22;3661;53.288;10.458;2023-03-01T11:17:29;10.60;99.90
7240;DHT22;3661;53.288;10.458;2023-03-01T11:20:10;10.70;99.90
7240;DHT22;3661;53.288;10.458;2023-03-01T11:22:59;10.90;99.90
7240;DHT22;3661;53.288;10.458;2023-03-01T11:25:36;11.00;99.90
7240;DHT22;3661;53.288;10.458;2023-03-01T11:28:14;11.10;99.90
7240;DHT22;3661;53.288;10.458;2023-03-01T11:30:51;11.20;99.90
7240;DHT22;3661;53.288;10.458;2023-03-01T11:33:34;11.30;99.90
7240;DHT22;3661;53.288;10.458;2023-03-01T11:36:16;11.40;99.90
7240;DHT22;3661;53.288;10.458;2023-03-01T11:38:52;11.50;99.90
7240;DHT22;3661;53.288;10.458;2023-03-01T11:41:27;11.60;99.90
7240;DHT22;3661;53.288;10.458;2023-03-01T11:44:02;11.60;99.90
7240;DHT22;3661;53.288;10.458;2023-03-01T11:46:46;11.70;99.90
7240;DHT22;3661;53.288;10.458;2023-03-01T11:49:43;11.80;99.90
7240;DHT22;3661;53.288;10.458;2023-03-01T11:52:25;11.90;99.90
7240;DHT22;3661;53.288;10.458;2023-03-01T11:55:17;11.90;99.90
7240;DHT22;3661;53.288;10.458;2023-03-01T11:58:15;12.00;99.90
7240;DHT22;3661;53.288;10.458;2023-03-01T12:01:11;12.00;99.90
7240;DHT22;3661;53.288;10.458;2023-03-01T12:04:26;12.10;99.90
7240;DHT22;3661;53.288;10.458;2023-03-01T12:07:06;12.10;99.90
7240;DHT22;3661;53.288;10.458;2023-03-01T12:09:53;12.10;99.90
7240;DHT22;3661;53.288;10.458;2023-03-01T12:12:36;12.20;99.90
7240;DHT22;3661;53.288;10.458;2023-03-01T12:15:39;12.20;99.90
7240;DHT22;3661;53.288;10.458;2023-03-01T12:18:44;12.20;99.90
7240;DHT22;3661;53.288;10.458;2023-03-01T12:21:46;12.30;99.90
7240;DHT22;3661;53.288;10.458;2023-03-01T12:24:40;12.30;99.90
7240;DHT22;3661;53.288;10.458;2023-03-01T12:30:48;12.40;99.90
7240;DHT22;3661;53.288;10.458;2023-03-01T12:33:45;12.50;99.90
7240;DHT22;3661;53.288;10.458;2023-03-01T12:36:35;12.60;99.90
7240;DHT22;3661;53.288;10.458;2023-03-01T12:39:22;12.70;99.90
7240;DHT22;3661;53.288;10.458;2023-03-01T12:42:03;12.80;99.90
7240;DHT22;3661;53.288;10.458;2023-03-01T12:44:52;12.80;99.90
7240;DHT22;3661;53.288;10.458;2023-03-01T12:47:49;12.90;99.90
7240;DHT22;3661;53.288;10.458;2023-03-01T12:50:25;12.90;99.90
7240;DHT22;3661;53.288;10.458;2023-03-01T12:52:58;13.00;99.90
7240;DHT22;3661;53.288;10.458;2023-03-01T12:55:33;13.10;99.90
7240;DHT22;3661;53.288;10.458;2023-03-01T12:58:18;13.10;99.90
7240;DHT22;3661;53.288;10.458;2023-03-01T13:01:09;13.20;99.90
7240;DHT22;3661;53.288;10.458;2023-03-01T13:03:59;13.20;99.90
7240;DHT22;3661;53.288;10.458;2023-03-01T13:06:40;13.30;99.90
7240;DHT22;3661;53.288;10.458;2023-03-01T13:09:19;13.40;99.90
7240;DHT22;3661;53.288;10.458;2023-03-01T13:11:55;13.40;99.90
7240;DHT22;3661;53.288;10.458;2023-03-01T13:14:46;13.40;99.90
7240;DHT22;3661;53.288;10.458;2023-03-01T13:17:33;13.40;99.90
7240;DHT22;3661;53.288;10.458;2023-03-01T13:20:13;13.50;99.90
7240;DHT22;3661;53.288;10.458;2023-03-01T13:22:47;13.60;99.90
7240;DHT22;3661;53.288;10.458;2023-03-01T13:25:20;13.60;99.90
7240;DHT22;3661;53.288;10.458;2023-03-01T13:31:06;13.70;99.90
7240;DHT22;3661;53.288;10.458;2023-03-01T13:33:44;13.80;99.90
7240;DHT22;3661;53.288;10.458;2023-03-01T13:36:46;13.80;99.90
7240;DHT22;3661;53.288;10.458;2023-03-01T13:39:30;13.80;99.90
7240;DHT22;3661;53.288;10.458;2023-03-01T13:42:25;13.90;99.90
7240;DHT22;3661;53.288;10.458;2023-03-01T13:44:57;13.90;99.90
7240;DHT22;3661;53.288;10.458;2023-03-01T13:47:29;13.90;99.90
7240;DHT22;3661;53.288;10.458;2023-03-01T13:50:03;13.90;99.90
7240;DHT22;3661;53.288;10.458;2023-03-01T13:52:39;13.90;99.90
7240;DHT22;3661;53.288;10.458;2023-03-01T13:55:18;13.90;99.90
7240;DHT22;3661;53.288;10.458;2023-03-01T13:57:56;14.00;99.90
7240;DHT22;3661;53.288;10.458;2023-03-01T14:00:31;14.00;99.90
7240;DHT22;3661;53.288;10.458;2023-03-01T14:03:14;14.00;99.90
7240;DHT22;3661;53.288;10.458;2023-03-01T14:06:03;14.00;99.90
7240;DHT22;3661;53.288;10.458;2023-03-01T14:08:38;14.00;99.90
7240;DHT22;3661;53.288;10.458;2023-03-01T14:11:29;14.00;99.90
7240;DHT22;3661;53.288;10.458;2023-03-01T14:14:20;14.00;99.90
7240;DHT22;3661;53.288;10.458;2023-03-01T14:17:05;14.10;99.90
7240;DHT22;3661;53.288;10.458;2023-03-01T14:19:39;14.10;99.90
7240;DHT22;3661;53.288;10.458;2023-03-01T14:22:20;14.10;99.90
7240;DHT22;3661;53.288;10.458;2023-03-01T14:24:57;14.10;99.90
7240;DHT22;3661;53.288;10.458;2023-03-01T14:27:35;14.10;99.90
7240;DHT22;3661;53.288;10.458;2023-03-01T14:30:15;14.20;99.90
7240;DHT22;3661;53.288;10.458;2023-03-01T14:32:54;14.20;99.90
7240;DHT22;3661;53.288;10.458;2023-03-01T14:35:29;14.20;99.90
7240;DHT22;3661;53.288;10.458;2023-03-01T14:38:01;14.20;99.90
7240;DHT22;3661;53.288;10.458;2023-03-01T14:40:36;14.30;99.90
7240;DHT22;3661;53.288;10.458;2023-03-01T14:43:10;14.30;99.90
7240;DHT22;3661;53.288;10.458;2023-03-01T14:45:47;14.30;99.90
7240;DHT22;3661;53.288;10.458;2023-03-01T14:48:20;14.40;99.90
7240;DHT22;3661;53.288;10.458;2023-03-01T14:50:52;14.40;99.90
7240;DHT22;3661;53.288;10.458;2023-03-01T14:53:26;14.40;99.90
7240;DHT22;3661;53.288;10.458;2023-03-01T14:56:01;14.40;99.90
7240;DHT22;3661;53.288;10.458;2023-03-01T14:58:34;14.40;99.90
7240;DHT22;3661;53.288;10.458;2023-03-01T15:01:06;14.40;99.90
7240;DHT22;3661;53.288;10.458;2023-03-01T15:03:41;14.40;99.90
7240;DHT22;3661;53.288;10.458;2023-03-01T15:06:16;14.40;99.90
7240;DHT22;3661;53.288;10.458;2023-03-01T15:08:51;14.40;99.90
7240;DHT22;3661;53.288;10.458;2023-03-01T15:11:28;14.30;99.90
7240;DHT22;3661;53.288;10.458;2023-03-01T15:14:00;14.30;99.90
7240;DHT22;3661;53.288;10.458;2023-03-01T15:16:33;14.30;99.90
7240;DHT22;3661;53.288;10.458;2023-03-01T15:19:06;14.30;99.90
7240;DHT22;3661;53.288;10.458;2023-03-01T15:21:39;14.30;99.90
7240;DHT22;3661;53.288;10.458;2023-03-01T15:24:20;14.20;99.90
7240;DHT22;3661;53.288;10.458;2023-03-01T15:26:58;14.20;99.90
7240;DHT22;3661;53.288;10.458;2023-03-01T15:29:33;14.20;99.90
7240;DHT22;3661;53.288;10.458;2023-03-01T15:32:26;14.20;99.90
7240;DHT22;3661;53.288;10.458;2023-03-01T15:34:59;14.10;99.90
7240;DHT22;3661;53.288;10.458;2023-03-01T15:37:44;14.10;99.90
7240;DHT22;3661;53.288;10.458;2023-03-01T15:40:20;14.00;99.90
7240;DHT22;3661;53.288;10.458;2023-03-01T15:42:56;14.00;99.90
7240;DHT22;3661;53.288;10.458;2023-03-01T15:45:29;13.90;99.90
7240;DHT22;3661;53.288;10.458;2023-03-01T15:48:03;13.90;99.90
7240;DHT22;3661;53.288;10.458;2023-03-01T15:50:36;13.80;99.90
7240;DHT22;3661;53.288;10.458;2023-03-01T15:53:12;13.80;99.90
7240;DHT22;3661;53.288;10.458;2023-03-01T15:55:44;13.70;99.90
7240;DHT22;3661;53.288;10.458;2023-03-01T15:58:22;13.60;99.90
7240;DHT22;3661;53.288;10.458;2023-03-01T16:00:55;13.60;99.90
7240;DHT22;3661;53.288;10.458;2023-03-01T16:03:27;13.50;99.90
7240;DHT22;3661;53.288;10.458;2023-03-01T16:06:00;13.40;99.90
7240;DHT22;3661;53.288;10.458;2023-03-01T16:08:32;13.20;99.90
7240;DHT22;3661;53.288;10.458;2023-03-01T16:11:04;13.10;99.90
7240;DHT22;3661;53.288;10.458;2023-03-01T16:13:38;13.00;99.90
7240;DHT22;3661;53.288;10.458;2023-03-01T16:16:12;12.90;99.90
7240;DHT22;3661;53.288;10.458;2023-03-01T16:18:46;12.70;99.90
7240;DHT22;3661;53.288;10.458;2023-03-01T16:21:22;12.60;99.90
7240;DHT22;3661;53.288;10.458;2023-03-01T16:23:54;12.50;99.90
7240;DHT22;3661;53.288;10.458;2023-03-01T16:26:27;12.40;99.90
7240;DHT22;3661;53.288;10.458;2023-03-01T16:29:01;12.20;99.90
7240;DHT22;3661;53.288;10.458;2023-03-01T16:31:33;12.10;99.90
7240;DHT22;3661;53.288;10.458;2023-03-01T16:34:05;12.00;99.90
7240;DHT22;3661;53.288;10.458;2023-03-01T16:36:37;11.80;99.90
7240;DHT22;3661;53.288;10.458;2023-03-01T16:39:09;11.70;99.90
7240;DHT22;3661;53.288;10.458;2023-03-01T16:41:41;11.60;99.90
7240;DHT22;3661;53.288;10.458;2023-03-01T16:44:15;11.50;99.90
7240;DHT22;3661;53.288;10.458;2023-03-01T16:46:47;11.30;99.90
7240;DHT22;3661;53.288;10.458;2023-03-01T16:49:19;11.20;99.90
7240;DHT22;3661;53.288;10.458;2023-03-01T16:51:53;11.10;99.90
7240;DHT22;3661;53.288;10.458;2023-03-01T16:54:25;11.00;99.90
7240;DHT22;3661;53.288;10.458;2023-03-01T16:56:57;10.90;99.90
7240;DHT22;3661;53.288;10.458;2023-03-01T16:59:31;10.70;99.90
7240;DHT22;3661;53.288;10.458;2023-03-01T17:02:04;10.60;99.90
7240;DHT22;3661;53.288;10.458;2023-03-01T17:04:36;10.40;99.90
7240;DHT22;3661;53.288;10.458;2023-03-01T17:07:08;10.30;99.90
7240;DHT22;3661;53.288;10.458;2023-03-01T17:09:40;10.20;99.90
7240;DHT22;3661;53.288;10.458;2023-03-01T17:12:13;10.10;99.90
7240;DHT22;3661;53.288;10.458;2023-03-01T17:14:46;9.90;99.90
7240;DHT22;3661;53.288;10.458;2023-03-01T17:17:19;9.80;99.90
7240;DHT22;3661;53.288;10.458;2023-03-01T17:19:52;9.70;99.90
7240;DHT22;3661;53.288;10.458;2023-03-01T17:22:24;9.60;99.90
7240;DHT22;3661;53.288;10.458;2023-03-01T17:24:56;9.50;99.90
7240;DHT22;3661;53.288;10.458;2023-03-01T17:27:28;9.30;99.90
7240;DHT22;3661;53.288;10.458;2023-03-01T17:30:09;9.20;99.90
7240;DHT22;3661;53.288;10.458;2023-03-01T17:32:42;9.10;99.90
7240;DHT22;3661;53.288;10.458;2023-03-01T17:35:14;9.00;99.90
7240;DHT22;3661;53.288;10.458;2023-03-01T17:37:47;8.90;99.90
7240;DHT22;3661;53.288;10.458;2023-03-01T17:40:19;8.80;99.90
7240;DHT22;3661;53.288;10.458;2023-03-01T17:42:51;8.70;99.90